createdAt,value
2022-12-23T00:01:49.498Z,7.17
2022-12-23T00:04:16.007Z,7.09
2022-12-23T00:06:42.401Z,7.18
2022-12-23T00:09:08.769Z,7.16
2022-12-23T00:11:35.199Z,7.12
2022-12-23T00:14:21.864Z,7.09
2022-12-23T00:16:50.533Z,7.05
2022-12-23T00:19:17.199Z,7.06
2022-12-23T00:21:43.548Z,7.12
2022-12-23T00:24:11.906Z,7.09
2022-12-23T00:26:39.392Z,7.04
2022-12-23T00:29:05.802Z,7.09
2022-12-23T00:31:32.297Z,7.03
2022-12-23T00:33:58.768Z,7.03
2022-12-23T00:36:27.511Z,7.08
2022-12-23T00:39:13.829Z,7.05
2022-12-23T00:41:58.659Z,7.11
2022-12-23T00:44:25.281Z,7.05
2022-12-23T00:46:51.640Z,7.03
2022-12-23T00:49:38.239Z,6.95
2022-12-23T00:52:06.129Z,7.03
2022-12-23T00:54:32.559Z,7.12
2022-12-23T00:57:00.152Z,7.08
2022-12-23T00:59:26.656Z,6.99
2022-12-23T01:02:11.623Z,6.99
2022-12-23T01:04:57.313Z,6.95
2022-12-23T01:07:24.073Z,6.96
2022-12-23T01:09:50.529Z,7.10
2022-12-23T01:12:16.945Z,7.03
2022-12-23T01:14:43.306Z,7.01
2022-12-23T01:17:09.788Z,7.05
2022-12-23T01:19:36.408Z,7.02
2022-12-23T01:22:03.163Z,6.97
2022-12-23T01:24:30.731Z,6.87
2022-12-23T01:26:57.194Z,6.88
2022-12-23T01:29:23.827Z,6.86
2022-12-23T01:31:50.256Z,6.87
2022-12-23T01:34:16.790Z,6.90
2022-12-23T01:36:43.148Z,6.87
2022-12-23T01:39:09.510Z,6.88
2022-12-23T01:41:54.558Z,6.95
2022-12-23T01:44:50.541Z,6.94
2022-12-23T01:47:20.364Z,6.90
2022-12-23T01:49:48.778Z,6.84
2022-12-23T01:52:15.270Z,6.82
2022-12-23T01:54:42.944Z,6.79
2022-12-23T01:57:09.486Z,6.91
2022-12-23T01:59:54.864Z,6.89
2022-12-23T02:02:40.864Z,6.99
2022-12-23T02:05:08.332Z,6.97
2022-12-23T02:07:54.338Z,6.99
2022-12-23T02:10:26.276Z,6.98
2022-12-23T02:13:16.132Z,7.01
2022-12-23T02:16:17.924Z,7.01
2022-12-23T02:18:47.052Z,7.03
2022-12-23T02:21:30.676Z,7.03
2022-12-23T02:24:34.162Z,6.98
2022-12-23T02:27:16.885Z,6.91
2022-12-23T02:30:04.343Z,7.00
2022-12-23T02:32:43.321Z,7.02
2022-12-23T02:35:42.936Z,7.05
2022-12-23T02:38:13.782Z,7.11
2022-12-23T02:40:49.168Z,7.11
2022-12-23T02:43:24.691Z,7.10
2022-12-23T02:46:00.362Z,7.14
2022-12-23T02:48:38.748Z,7.08
2022-12-23T02:51:07.696Z,7.07
2022-12-23T02:53:39.615Z,7.11
2022-12-23T02:56:08.779Z,7.16
2022-12-23T02:58:43.307Z,7.25
2022-12-23T03:01:13.120Z,7.17
2022-12-23T03:03:40.921Z,7.16
2022-12-23T03:06:17.542Z,7.20
2022-12-23T03:08:45.540Z,7.22
2022-12-23T03:11:14.871Z,7.27
2022-12-23T03:13:53.213Z,7.21
2022-12-23T03:16:27.099Z,7.30
2022-12-23T03:19:02.819Z,7.27
2022-12-23T03:21:54.635Z,7.31
2022-12-23T03:24:40.733Z,7.30
2022-12-23T03:27:30.549Z,7.22
2022-12-23T03:30:01.883Z,7.31
2022-12-23T03:32:32.546Z,7.29
2022-12-23T03:35:01.074Z,7.23
2022-12-23T03:37:30.311Z,7.32
2022-12-23T03:40:17.039Z,7.23
2022-12-23T03:42:46.553Z,7.25
2022-12-23T03:48:15.411Z,7.34
2022-12-23T03:50:44.060Z,7.30
2022-12-23T03:53:16.467Z,7.30
2022-12-23T03:55:51.506Z,7.29
2022-12-23T03:58:30.779Z,7.21
2022-12-23T04:01:09.890Z,7.39
2022-12-23T04:03:54.660Z,7.38
2022-12-23T04:06:23.858Z,7.36
2022-12-23T04:08:51.085Z,7.36
2022-12-23T04:11:17.506Z,7.36
2022-12-23T04:13:43.929Z,7.32
2022-12-23T04:16:10.638Z,7.34
2022-12-23T04:18:37.054Z,7.33
2022-12-23T04:21:03.638Z,7.37
2022-12-23T04:23:30.002Z,7.37
2022-12-23T04:25:56.504Z,7.39
2022-12-23T04:28:22.885Z,7.43
2022-12-23T04:30:49.282Z,7.37
2022-12-23T04:33:15.689Z,7.33
2022-12-23T04:35:42.049Z,7.33
2022-12-23T04:38:08.384Z,7.32
2022-12-23T04:40:34.755Z,7.34
2022-12-23T04:43:01.110Z,7.37
2022-12-23T04:45:27.504Z,7.39
2022-12-23T04:47:55.149Z,7.34
2022-12-23T04:50:21.564Z,7.36
2022-12-23T04:52:47.947Z,7.32
2022-12-23T04:55:14.315Z,7.34
2022-12-23T04:57:40.689Z,7.41
2022-12-23T05:00:07.742Z,7.38
2022-12-23T05:02:34.375Z,7.33
2022-12-23T05:05:00.836Z,7.29
2022-12-23T05:07:27.214Z,7.39
2022-12-23T05:09:53.584Z,7.29
2022-12-23T05:12:19.971Z,7.37
2022-12-23T05:14:47.138Z,7.39
2022-12-23T05:17:13.540Z,7.36
2022-12-23T05:19:39.877Z,7.40
2022-12-23T05:22:06.216Z,7.42
2022-12-23T05:24:32.569Z,7.33
2022-12-23T05:27:00.426Z,7.40
2022-12-23T05:29:27.476Z,7.37
2022-12-23T05:31:53.893Z,7.27
2022-12-23T05:34:20.575Z,7.26
2022-12-23T05:36:46.941Z,7.32
2022-12-23T05:39:13.517Z,7.36
2022-12-23T05:41:39.888Z,7.31
2022-12-23T05:44:06.244Z,7.27
2022-12-23T05:46:32.757Z,7.20
2022-12-23T05:48:59.363Z,7.31
2022-12-23T05:51:25.812Z,7.29
2022-12-23T05:53:52.189Z,7.27
2022-12-23T05:56:18.582Z,7.36
2022-12-23T05:58:44.913Z,7.30
2022-12-23T06:01:11.276Z,7.29
2022-12-23T06:03:37.791Z,7.23
2022-12-23T06:06:04.698Z,7.27
2022-12-23T06:08:31.046Z,7.26
2022-12-23T06:10:59.668Z,7.31
2022-12-23T06:13:26.125Z,7.28
2022-12-23T06:15:52.479Z,7.26
2022-12-23T06:18:18.826Z,7.39
2022-12-23T06:20:47.137Z,7.36
2022-12-23T06:23:13.831Z,7.43
2022-12-23T06:25:40.207Z,7.29
2022-12-23T06:28:07.882Z,7.39
2022-12-23T06:30:34.461Z,7.35
2022-12-23T06:33:00.819Z,7.35
2022-12-23T06:35:27.168Z,7.34
2022-12-23T06:37:53.549Z,7.32
2022-12-23T06:40:19.937Z,7.29
2022-12-23T06:42:46.379Z,7.28
2022-12-23T06:45:13.308Z,7.29
2022-12-23T06:47:39.710Z,7.42
2022-12-23T06:50:06.583Z,7.43
2022-12-23T06:52:32.968Z,7.44
2022-12-23T06:54:59.311Z,7.41
2022-12-23T06:57:25.739Z,7.40
2022-12-23T06:59:52.088Z,7.48
2022-12-23T07:02:18.627Z,7.42
2022-12-23T07:04:45.114Z,7.43
2022-12-23T07:07:11.518Z,7.40
2022-12-23T07:09:37.874Z,7.43
2022-12-23T07:12:04.507Z,7.31
2022-12-23T07:14:30.900Z,7.31
2022-12-23T07:16:57.421Z,7.38
2022-12-23T07:19:23.861Z,7.39
2022-12-23T07:21:50.255Z,7.36
2022-12-23T07:24:16.992Z,7.37
2022-12-23T07:26:43.346Z,7.39
2022-12-23T07:29:09.715Z,7.40
2022-12-23T07:31:39.368Z,7.34
2022-12-23T07:34:07.438Z,7.36
2022-12-23T07:36:33.826Z,7.37
2022-12-23T07:39:00.175Z,7.41
2022-12-23T07:41:26.569Z,7.43
2022-12-23T07:43:52.917Z,7.45
2022-12-23T07:46:19.408Z,7.45
2022-12-23T07:48:45.777Z,7.45
2022-12-23T07:51:12.257Z,7.46
2022-12-23T07:53:38.750Z,7.40
2022-12-23T07:56:05.668Z,7.36
2022-12-23T07:58:32.114Z,7.45
2022-12-23T08:01:02.934Z,7.37
2022-12-23T08:03:30.365Z,7.42
2022-12-23T08:06:03.097Z,7.42
2022-12-23T08:08:29.912Z,7.49
2022-12-23T08:10:58.578Z,7.44
2022-12-23T08:13:25.068Z,7.38
2022-12-23T08:15:59.371Z,7.43
2022-12-23T08:18:26.504Z,7.43
2022-12-23T08:20:57.890Z,7.48
2022-12-23T08:23:25.843Z,7.51
2022-12-23T08:26:22.440Z,7.56
2022-12-23T08:28:50.516Z,7.60
2022-12-23T08:31:20.531Z,7.61
2022-12-23T08:33:49.504Z,7.53
2022-12-23T08:36:23.092Z,7.56
2022-12-23T08:38:53.166Z,7.59
2022-12-23T08:41:22.517Z,7.60
2022-12-23T08:43:49.544Z,7.60
2022-12-23T08:46:16.000Z,7.55
2022-12-23T08:48:48.662Z,7.56
2022-12-23T08:51:17.176Z,7.59
2022-12-23T08:53:44.354Z,7.64
2022-12-23T08:56:13.762Z,7.61
2022-12-23T08:58:42.899Z,7.66
2022-12-23T09:01:12.153Z,7.59
2022-12-23T09:03:39.633Z,7.65
2022-12-23T09:06:11.467Z,7.66
2022-12-23T09:08:38.290Z,7.69
2022-12-23T09:11:04.908Z,7.75
2022-12-23T09:13:35.566Z,7.75
2022-12-23T09:16:03.645Z,7.70
2022-12-23T09:18:30.082Z,7.69
2022-12-23T09:20:58.677Z,7.67
2022-12-23T09:23:25.127Z,7.71
2022-12-23T09:25:51.487Z,7.68
2022-12-23T09:28:17.843Z,7.76
2022-12-23T09:30:44.232Z,7.75
2022-12-23T09:33:10.639Z,7.81
2022-12-23T09:35:37.042Z,7.81
2022-12-23T09:38:03.445Z,7.83
2022-12-23T09:40:32.910Z,7.80
2022-12-23T09:43:07.244Z,7.86
2022-12-23T09:45:48.742Z,7.89
2022-12-23T09:48:18.873Z,7.85
2022-12-23T09:50:46.616Z,7.83
2022-12-23T09:53:14.686Z,7.85
2022-12-23T09:56:06.414Z,7.84
2022-12-23T09:58:45.624Z,7.80
2022-12-23T10:01:44.864Z,7.82
2022-12-23T10:04:42.080Z,7.81
2022-12-23T10:07:19.846Z,7.77
2022-12-23T10:09:50.040Z,7.77
2022-12-23T10:12:28.293Z,7.76
2022-12-23T10:15:00.738Z,7.76
2022-12-23T10:17:35.117Z,7.67
2022-12-23T10:20:04.334Z,7.72
2022-12-23T10:22:44.921Z,7.72
2022-12-23T10:25:28.205Z,7.70
2022-12-23T10:27:54.596Z,7.63
2022-12-23T10:33:21.792Z,7.72
2022-12-23T10:36:02.941Z,7.67
2022-12-23T10:38:51.020Z,7.71
2022-12-23T10:41:39.095Z,7.71
2022-12-23T10:44:22.788Z,7.73
2022-12-23T10:47:00.062Z,7.72
2022-12-23T10:49:46.720Z,7.72
2022-12-23T10:52:19.392Z,7.74
2022-12-23T10:54:47.360Z,7.76
2022-12-23T10:57:16.685Z,7.77
2022-12-23T10:59:43.279Z,7.75
2022-12-23T11:02:12.898Z,7.77
2022-12-23T11:04:47.834Z,7.71
2022-12-23T11:07:44.493Z,7.71
2022-12-23T11:10:20.803Z,7.68
2022-12-23T11:12:53.028Z,7.67
2022-12-23T11:15:54.728Z,7.68
2022-12-23T11:18:21.496Z,7.61
2022-12-23T11:21:14.252Z,7.64
2022-12-23T11:23:40.606Z,7.63
2022-12-23T11:26:18.943Z,7.63
2022-12-23T11:28:52.120Z,7.59
2022-12-23T11:31:35.125Z,7.54
2022-12-23T11:34:05.683Z,7.58
2022-12-23T11:36:32.923Z,7.52
2022-12-23T11:39:05.352Z,7.63
2022-12-23T11:41:49.812Z,7.55
2022-12-23T11:44:37.724Z,7.65
2022-12-23T11:47:22.309Z,7.69
2022-12-23T11:50:00.451Z,7.68
2022-12-23T11:52:28.907Z,7.68
2022-12-23T11:55:01.747Z,7.64
2022-12-23T11:57:45.898Z,7.75
2022-12-23T12:00:34.599Z,7.69
2022-12-23T12:03:03.493Z,7.68
2022-12-23T12:05:36.895Z,7.71
2022-12-23T12:08:06.907Z,7.73
2022-12-23T12:10:36.369Z,7.71
2022-12-23T12:13:06.922Z,7.63
2022-12-23T12:15:56.274Z,7.71
2022-12-23T12:18:23.505Z,7.62
2022-12-23T12:20:59.066Z,7.66
2022-12-23T12:23:44.168Z,7.63
2022-12-23T12:26:23.284Z,7.59
2022-12-23T12:29:30.874Z,7.66
2022-12-23T12:32:00.203Z,7.55
2022-12-23T12:34:44.140Z,7.67
2022-12-23T12:37:19.801Z,7.63
2022-12-23T12:39:53.944Z,7.52
2022-12-23T12:42:44.165Z,7.64
2022-12-23T12:45:13.462Z,7.65
2022-12-23T12:47:59.960Z,7.73
2022-12-23T12:50:36.237Z,7.65
2022-12-23T12:53:14.116Z,7.67
2022-12-23T12:55:46.161Z,7.63
2022-12-23T12:58:19.592Z,7.63
2022-12-23T13:01:02.791Z,7.74
2022-12-23T13:03:38.090Z,7.68
2022-12-23T13:06:07.746Z,7.73
2022-12-23T13:08:51.286Z,7.71
2022-12-23T13:11:44.943Z,7.71
2022-12-23T13:14:34.549Z,7.70
2022-12-23T13:17:12.262Z,7.73
2022-12-23T13:19:50.701Z,7.71
2022-12-23T13:22:24.588Z,7.76
2022-12-23T13:25:05.857Z,7.65
2022-12-23T13:27:47.206Z,7.74
2022-12-23T13:30:20.004Z,7.75
2022-12-23T13:33:08.943Z,7.76
2022-12-23T13:36:06.080Z,7.71
2022-12-23T13:39:09.549Z,7.74
2022-12-23T13:41:50.367Z,7.75
2022-12-23T13:44:18.624Z,7.74
2022-12-23T13:47:03.705Z,7.79
2022-12-23T13:49:57.636Z,7.82
2022-12-23T13:53:08.966Z,7.80
2022-12-23T13:55:48.623Z,7.76
2022-12-23T13:58:22.432Z,7.78
2022-12-23T14:01:08.557Z,7.84
2022-12-23T14:03:37.465Z,7.86
2022-12-23T14:06:30.242Z,7.93
2022-12-23T14:08:56.670Z,7.88
2022-12-23T14:11:33.822Z,7.96
2022-12-23T14:14:06.275Z,7.93
2022-12-23T14:17:06.213Z,7.88
2022-12-23T14:19:42.329Z,7.84
2022-12-23T14:22:34.344Z,7.86
2022-12-23T14:25:34.516Z,8.02
2022-12-23T14:28:16.027Z,8.03
2022-12-23T14:30:47.019Z,8.04
2022-12-23T14:33:33.902Z,8.00
2022-12-23T14:36:26.169Z,8.06
2022-12-23T14:39:11.005Z,8.13
2022-12-23T14:41:50.679Z,8.06
2022-12-23T14:44:40.931Z,8.09
2022-12-23T14:47:33.778Z,8.12
2022-12-23T14:50:39.717Z,8.16
2022-12-23T14:53:26.673Z,8.13
2022-12-23T14:56:07.897Z,8.24
2022-12-23T14:58:41.349Z,8.35
2022-12-23T15:01:12.928Z,8.25
2022-12-23T15:03:45.860Z,8.31
2022-12-23T15:06:18.150Z,8.41
2022-12-23T15:08:47.415Z,8.48
2022-12-23T15:11:22.828Z,8.67
2022-12-23T15:13:52.100Z,9.01
2022-12-23T15:16:19.187Z,8.96
2022-12-23T15:18:56.014Z,9.05
2022-12-23T15:21:32.231Z,9.21
2022-12-23T15:23:58.725Z,9.34
2022-12-23T15:26:30.196Z,9.31
2022-12-23T15:28:58.976Z,9.42
2022-12-23T15:31:28.991Z,9.53
2022-12-23T15:34:06.933Z,9.52
2022-12-23T15:36:36.853Z,9.44
2022-12-23T15:39:10.074Z,9.48
2022-12-23T15:41:44.434Z,9.51
2022-12-23T15:44:20.132Z,9.54
2022-12-23T15:46:46.625Z,9.52
2022-12-23T15:49:13.065Z,9.56
2022-12-23T15:54:36.799Z,9.68
2022-12-23T15:57:04.458Z,9.57
2022-12-23T15:59:38.595Z,9.51
2022-12-23T16:02:59.711Z,9.67
2022-12-23T16:05:30.309Z,9.75
2022-12-23T16:08:19.355Z,9.77
2022-12-23T16:11:16.183Z,9.90
2022-12-23T16:14:00.189Z,9.99
2022-12-23T16:16:42.420Z,9.98
2022-12-23T16:19:36.900Z,9.96
2022-12-23T16:22:19.998Z,9.81
2022-12-23T16:24:50.453Z,9.90
2022-12-23T16:27:19.672Z,9.98
2022-12-23T16:29:47.813Z,9.97
2022-12-23T16:32:19.155Z,10.05
2022-12-23T16:34:49.953Z,10.04
2022-12-23T16:37:16.441Z,10.14
2022-12-23T16:39:42.852Z,10.16
2022-12-23T16:42:09.275Z,10.07
2022-12-23T16:44:35.658Z,10.09
2022-12-23T16:47:08.486Z,10.20
2022-12-23T16:49:37.212Z,10.32
2022-12-23T16:52:06.301Z,10.26
2022-12-23T16:54:32.685Z,10.34
2022-12-23T16:56:59.170Z,10.25
2022-12-23T16:59:25.955Z,10.31
2022-12-23T17:01:56.566Z,10.29
2022-12-23T17:04:25.959Z,10.29
2022-12-23T17:06:52.368Z,10.18
2022-12-23T17:09:19.050Z,10.17
2022-12-23T17:11:49.032Z,10.23
2022-12-23T17:14:22.172Z,10.08
2022-12-23T17:16:49.240Z,10.05
2022-12-23T17:19:16.292Z,10.01
2022-12-23T17:21:46.923Z,10.15
2022-12-23T17:24:22.274Z,10.12
2022-12-23T17:26:49.077Z,9.99
2022-12-23T17:29:15.524Z,10.04
2022-12-23T17:31:43.539Z,10.04
2022-12-23T17:34:19.703Z,9.96
2022-12-23T17:36:50.385Z,9.99
2022-12-23T17:39:17.844Z,9.90
2022-12-23T17:41:44.278Z,9.92
2022-12-23T17:44:14.108Z,9.94
2022-12-23T17:46:40.668Z,9.83
2022-12-23T17:49:08.103Z,9.83
2022-12-23T17:51:35.034Z,9.76
2022-12-23T17:54:02.097Z,9.77
2022-12-23T17:56:29.023Z,9.70
2022-12-23T17:58:55.446Z,9.58
2022-12-23T18:01:31.409Z,9.51
2022-12-23T18:03:59.704Z,9.50
2022-12-23T18:06:27.957Z,9.47
2022-12-23T18:08:55.200Z,9.46
2022-12-23T18:11:30.214Z,9.42
2022-12-23T18:13:57.005Z,9.28
2022-12-23T18:16:23.417Z,9.18
2022-12-23T18:18:49.892Z,9.22
2022-12-23T18:21:29.226Z,9.06
2022-12-23T18:23:58.667Z,9.13
2022-12-23T18:26:25.362Z,9.04
2022-12-23T18:28:54.003Z,8.97
2022-12-23T18:31:23.946Z,8.98
2022-12-23T18:33:51.145Z,8.92
2022-12-23T18:36:30.339Z,8.93
2022-12-23T18:38:57.210Z,8.82
2022-12-23T18:41:24.831Z,8.82
2022-12-23T18:43:51.755Z,8.81
2022-12-23T18:46:19.996Z,8.74
2022-12-23T18:48:46.699Z,8.74
2022-12-23T18:51:18.216Z,8.67
2022-12-23T18:53:46.003Z,8.52
2022-12-23T18:56:16.853Z,8.54
2022-12-23T18:58:43.233Z,8.51
2022-12-23T19:01:13.633Z,8.48
2022-12-23T19:03:40.611Z,8.43
2022-12-23T19:06:08.740Z,8.49
2022-12-23T19:08:37.137Z,8.48
2022-12-23T19:11:13.312Z,8.47
2022-12-23T19:13:39.904Z,8.47
2022-12-23T19:16:06.436Z,8.42
2022-12-23T19:18:32.937Z,8.45
2022-12-23T19:21:04.172Z,8.38
2022-12-23T19:23:30.569Z,8.54
2022-12-23T19:25:56.957Z,8.43
2022-12-23T19:28:23.748Z,8.38
2022-12-23T19:30:50.453Z,8.46
2022-12-23T19:33:17.226Z,8.49
2022-12-23T19:35:44.433Z,8.52
2022-12-23T19:38:12.110Z,8.48
2022-12-23T19:40:38.599Z,8.49
2022-12-23T19:43:04.950Z,8.49
2022-12-23T19:45:31.454Z,8.46
2022-12-23T19:47:57.802Z,8.54
2022-12-23T19:50:24.308Z,8.53
2022-12-23T19:52:51.539Z,8.48
2022-12-23T19:55:17.976Z,8.45
2022-12-23T19:57:44.317Z,8.45
2022-12-23T20:00:11.195Z,8.44
2022-12-23T20:02:37.797Z,8.41
2022-12-23T20:05:04.620Z,8.36
2022-12-23T20:07:30.952Z,8.42
2022-12-23T20:09:57.301Z,8.31
2022-12-23T20:12:25.267Z,8.38
2022-12-23T20:14:51.724Z,8.33
2022-12-23T20:17:18.097Z,8.58
2022-12-23T20:19:46.442Z,8.57
2022-12-23T20:22:13.072Z,8.48
2022-12-23T20:24:39.455Z,8.44
2022-12-23T20:27:10.913Z,8.33
2022-12-23T20:29:38.382Z,8.50
2022-12-23T20:32:04.978Z,8.47
2022-12-23T20:34:38.347Z,8.50
2022-12-23T20:37:05.456Z,8.45
2022-12-23T20:39:31.846Z,8.40
2022-12-23T20:41:58.228Z,8.57
2022-12-23T20:44:34.668Z,8.52
2022-12-23T20:47:02.663Z,8.54
2022-12-23T20:49:29.239Z,8.47
2022-12-23T20:51:55.632Z,8.51
2022-12-23T20:54:26.381Z,8.54
2022-12-23T20:56:56.343Z,8.50
2022-12-23T20:59:22.690Z,8.35
2022-12-23T21:01:49.264Z,8.36
2022-12-23T21:04:16.418Z,8.31
2022-12-23T21:06:43.004Z,8.50
2022-12-23T21:09:11.576Z,8.49
2022-12-23T21:11:41.134Z,8.42
2022-12-23T21:14:08.074Z,8.32
2022-12-23T21:16:36.957Z,8.45
2022-12-23T21:19:04.706Z,8.42
2022-12-23T21:21:31.854Z,8.42
2022-12-23T21:24:01.361Z,8.25
2022-12-23T21:26:30.235Z,8.30
2022-12-23T21:29:01.417Z,8.40
2022-12-23T21:31:29.631Z,8.50
2022-12-23T21:33:56.367Z,8.41
2022-12-23T21:36:26.131Z,8.38
2022-12-23T21:38:52.609Z,8.47
2022-12-23T21:41:22.098Z,8.40
2022-12-23T21:43:49.358Z,8.26
2022-12-23T21:46:18.191Z,8.28
2022-12-23T21:48:45.219Z,8.18
2022-12-23T21:51:23.411Z,8.30
2022-12-23T21:53:52.976Z,8.22
2022-12-23T21:56:22.231Z,8.16
2022-12-23T21:58:48.580Z,8.16
2022-12-23T22:01:17.966Z,8.16
2022-12-23T22:03:45.852Z,8.16
2022-12-23T22:06:15.135Z,8.13
2022-12-23T22:08:42.207Z,8.18
2022-12-23T22:11:10.630Z,8.19
2022-12-23T22:13:37.836Z,8.18
2022-12-23T22:16:08.720Z,8.15
2022-12-23T22:18:36.247Z,8.12
2022-12-23T22:21:08.389Z,8.14
2022-12-23T22:23:35.835Z,8.26
2022-12-23T22:26:02.396Z,8.18
2022-12-23T22:28:31.335Z,8.19
2022-12-23T22:31:23.857Z,8.25
2022-12-23T22:33:50.265Z,8.24
2022-12-23T22:36:17.227Z,8.18
2022-12-23T22:38:44.026Z,8.21
2022-12-23T22:41:10.893Z,8.17
2022-12-23T22:43:37.843Z,8.21
2022-12-23T22:46:04.878Z,8.23
2022-12-23T22:48:31.390Z,8.44
2022-12-23T22:51:09.390Z,8.36
2022-12-23T22:53:36.576Z,8.28
2022-12-23T22:56:04.517Z,8.17
2022-12-23T22:58:32.317Z,8.19
2022-12-23T23:00:58.918Z,8.24
2022-12-23T23:03:26.247Z,8.21
2022-12-23T23:06:06.879Z,8.17
2022-12-23T23:08:34.501Z,8.22
2022-12-23T23:11:02.681Z,8.18
2022-12-23T23:13:34.423Z,8.03
2022-12-23T23:16:01.721Z,8.13
2022-12-23T23:18:29.873Z,8.09
2022-12-23T23:20:56.757Z,8.29
2022-12-23T23:23:23.189Z,8.17
2022-12-23T23:25:49.558Z,8.11
2022-12-23T23:28:16.389Z,8.00
2022-12-23T23:30:42.816Z,7.99
2022-12-23T23:33:10.203Z,7.95
2022-12-23T23:35:37.016Z,7.90
2022-12-23T23:38:03.458Z,7.99
2022-12-23T23:40:30.119Z,8.03
2022-12-23T23:42:56.478Z,7.91
2022-12-23T23:45:22.878Z,7.99
2022-12-23T23:47:49.304Z,7.96
2022-12-23T23:50:15.674Z,7.94
2022-12-23T23:52:42.022Z,7.81
2022-12-23T23:55:08.891Z,7.83
2022-12-23T23:57:35.262Z,7.89
